^^
Your Local Weather - Clay, NY Station Historical Data
Daily Summary for December 24, 2017 Units:  English    Metric   Both
« Previous Day
Next Day »
Daily Weekly Monthly Yearly Custom
  High: Low: Average:
Temperature: 31.2 °F 26.0 °F 29.4 °F
Dew Point: 29.4 °F 23.7 °F 26 °F
Humidity: 94% 78% 87%
Wind Speed: 6.0mph 0.0mph 1.7mph
Wind Gust: 11.0mph - -
Wind- - SSE
Pressure: 30.23 in 29.73 in -
Precipitation: 0.00 in    
Historical Graphs
 
 
Tabular Data for December 24, 2017
Time Temperature Dew Point Pressure Wind Wind Speed Wind Gust Humidity Rainfall Rate (Hourly) solar
00:08 30.9 °F 29.4 °F 30.06 in NNW 1.0 mph 1.0 mph 94% 0.00 in 0 W/m2
00:13 30.8 °F 29.3 °F 30.06 in Calm   1.0 mph 94% 0.00 in 0 W/m2
00:15 30.8 °F 29.3 °F 30.06 in Calm   1.0 mph 94% 0.00 in 0 W/m2
00:22 30.8 °F 29.0 °F 30.06 in Calm     93% 0.00 in 0 W/m2
00:28 30.7 °F 28.9 °F 30.06 in Calm     93% 0.00 in 0 W/m2
00:33 30.6 °F 28.8 °F 30.07 in Calm     93% 0.00 in 0 W/m2
00:39 30.5 °F 28.7 °F 30.07 in Calm     93% 0.00 in 0 W/m2
00:45 30.5 °F 28.7 °F 30.07 in Calm     93% 0.00 in 0 W/m2
00:52 30.4 °F 28.6 °F 30.07 in Calm     93% 0.00 in 0 W/m2
00:58 30.3 °F 28.5 °F 30.07 in Calm     93% 0.00 in 0 W/m2
01:04 30.1 °F 28.3 °F 30.08 in Calm     93% 0.00 in 0 W/m2
01:10 30.0 °F 28.2 °F 30.09 in Calm     93% 0.00 in 0 W/m2
01:16 30.0 °F 28.2 °F 30.09 in Calm   1.0 mph 93% 0.00 in 0 W/m2
01:22 30.1 °F 28.3 °F 30.09 in Calm     93% 0.00 in 0 W/m2
01:26 30.0 °F 28.2 °F 30.09 in Calm     93% 0.00 in 0 W/m2
01:32 30.0 °F 28.2 °F 30.09 in Calm     93% 0.00 in 0 W/m2
01:38 30.1 °F 28.3 °F 30.10 in Calm     93% 0.00 in 0 W/m2
01:44 30.2 °F 28.4 °F 30.10 in Calm     93% 0.00 in 0 W/m2
01:50 30.2 °F 28.2 °F 30.10 in Calm   1.0 mph 92% 0.00 in 0 W/m2
01:54 30.2 °F 28.2 °F 30.10 in Calm   1.0 mph 92% 0.00 in 0 W/m2
02:00 30.3 °F 28.3 °F 30.10 in NNW 1.0 mph 1.0 mph 92% 0.00 in 0 W/m2
02:06 30.4 °F 28.4 °F 30.10 in NNW 1.0 mph 3.0 mph 92% 0.00 in 0 W/m2
02:12 30.4 °F 28.4 °F 30.11 in WNW 1.0 mph 4.0 mph 92% 0.00 in 0 W/m2
02:18 30.5 °F 28.5 °F 30.11 in WNW 1.0 mph 4.0 mph 92% 0.00 in 0 W/m2
02:24 30.6 °F 28.6 °F 30.11 in WSW 1.0 mph 2.0 mph 92% 0.00 in 0 W/m2
02:30 30.6 °F 28.6 °F 30.12 in WSW 2.0 mph 2.0 mph 92% 0.00 in 0 W/m2
02:36 30.6 °F 28.6 °F 30.12 in WSW 1.0 mph 2.0 mph 92% 0.00 in 0 W/m2
02:42 30.7 °F 28.7 °F 30.12 in WSW 1.0 mph 2.0 mph 92% 0.00 in 0 W/m2
02:48 30.7 °F 28.4 °F 30.12 in WSW 2.0 mph 2.0 mph 91% 0.00 in 0 W/m2
02:54 30.7 °F 28.4 °F 30.12 in WSW 1.0 mph 2.0 mph 91% 0.00 in 0 W/m2
03:00 30.6 °F 28.3 °F 30.12 in WSW 1.0 mph 1.0 mph 91% 0.00 in 0 W/m2
03:08 30.6 °F 28.3 °F 30.12 in WSW 2.0 mph 2.0 mph 91% 0.00 in 0 W/m2
03:14 30.5 °F 28.2 °F 30.12 in West 1.0 mph 3.0 mph 91% 0.00 in 0 W/m2
03:20 30.5 °F 28.2 °F 30.13 in West 1.0 mph 1.0 mph 91% 0.00 in 0 W/m2
03:26 30.4 °F 28.1 °F 30.13 in WSW 2.0 mph 2.0 mph 91% 0.00 in 0 W/m2
03:32 30.4 °F 28.1 °F 30.13 in WSW 2.0 mph 2.0 mph 91% 0.00 in 0 W/m2
03:38 30.4 °F 27.8 °F 30.13 in WSW 1.0 mph 2.0 mph 90% 0.00 in 0 W/m2
03:44 30.4 °F 27.8 °F 30.13 in WSW 1.0 mph 3.0 mph 90% 0.00 in 0 W/m2
03:50 30.3 °F 27.7 °F 30.13 in West 1.0 mph 1.0 mph 90% 0.00 in 0 W/m2
03:56 30.3 °F 27.7 °F 30.14 in SW 1.0 mph 2.0 mph 90% 0.00 in 0 W/m2
04:02 30.2 °F 27.6 °F 30.14 in SW 2.0 mph 2.0 mph 90% 0.00 in 0 W/m2
04:10 30.2 °F 27.6 °F 30.14 in WSW 1.0 mph 1.0 mph 90% 0.00 in 0 W/m2
04:16 30.1 °F 27.5 °F 30.15 in WSW 2.0 mph 2.0 mph 90% 0.00 in 0 W/m2
04:22 30.1 °F 27.5 °F 30.15 in West 3.0 mph 4.0 mph 90% 0.00 in 0 W/m2
04:28 30.0 °F 27.4 °F 30.15 in West 3.0 mph 4.0 mph 90% 0.00 in 0 W/m2
04:34 29.9 °F 27.3 °F 30.15 in WSW 2.0 mph 4.0 mph 90% 0.00 in 0 W/m2
04:40 29.9 °F 27.3 °F 30.15 in WSW 2.0 mph 2.0 mph 90% 0.00 in 0 W/m2
04:46 29.8 °F 27.2 °F 30.15 in West 2.0 mph 4.0 mph 90% 0.00 in 0 W/m2
04:52 29.7 °F 27.1 °F 30.15 in SSW 2.0 mph 5.0 mph 90% 0.00 in 0 W/m2
04:58 29.6 °F 27.0 °F 30.15 in WSW 2.0 mph 5.0 mph 90% 0.00 in 0 W/m2
05:04 29.5 °F 26.9 °F 30.16 in WSW 2.0 mph 2.0 mph 90% 0.00 in 0 W/m2
05:10 29.5 °F 26.9 °F 30.16 in SW 2.0 mph 3.0 mph 90% 0.00 in 0 W/m2
05:16 29.4 °F 26.8 °F 30.17 in WSW 2.0 mph 3.0 mph 90% 0.00 in 0 W/m2
05:22 29.4 °F 26.6 °F 30.18 in WSW 2.0 mph 3.0 mph 89% 0.00 in 0 W/m2
05:28 29.3 °F 26.5 °F 30.18 in WSW 2.0 mph 4.0 mph 89% 0.00 in 0 W/m2
05:34 29.2 °F 26.4 °F 30.18 in WSW 2.0 mph 4.0 mph 89% 0.00 in 0 W/m2
05:40 29.2 °F 26.4 °F 30.18 in WSW 2.0 mph 2.0 mph 89% 0.00 in 0 W/m2
05:46 29.1 °F 26.3 °F 30.19 in WSW 1.0 mph 3.0 mph 89% 0.00 in 0 W/m2
05:52 29.0 °F 26.2 °F 30.20 in WNW 1.0 mph 4.0 mph 89% 0.00 in 0 W/m2
05:58 29.0 °F 26.2 °F 30.20 in WNW 1.0 mph 4.0 mph 89% 0.00 in 0 W/m2
06:04 29.0 °F 26.2 °F 30.20 in WNW 1.0 mph 3.0 mph 89% 0.00 in 0 W/m2
06:10 28.9 °F 26.1 °F 30.20 in WNW 1.0 mph 1.0 mph 89% 0.00 in 0 W/m2
06:16 28.9 °F 26.1 °F 30.20 in WNW 2.0 mph 3.0 mph 89% 0.00 in 0 W/m2
06:18 28.8 °F 26.0 °F 30.20 in WNW 2.0 mph 3.0 mph 89% 0.00 in 0 W/m2
06:24 28.8 °F 26.0 °F 30.20 in WNW 2.0 mph 2.0 mph 89% 0.00 in 0 W/m2
06:30 28.7 °F 25.9 °F 30.20 in WNW 1.0 mph 1.0 mph 89% 0.00 in 0 W/m2
06:36 28.7 °F 25.9 °F 30.20 in Calm   2.0 mph 89% 0.00 in 0 W/m2
06:42 28.6 °F 25.8 °F 30.20 in WNW 1.0 mph 1.0 mph 89% 0.00 in 0 W/m2
06:44 28.7 °F 25.9 °F 30.20 in WNW 1.0 mph 1.0 mph 89% 0.00 in 0 W/m2
06:50 28.6 °F 25.8 °F 30.20 in WNW 1.0 mph 1.0 mph 89% 0.00 in 0 W/m2
06:56 28.6 °F 25.8 °F 30.20 in WNW 1.0 mph 1.0 mph 89% 0.00 in 0 W/m2
07:02 28.5 °F 25.7 °F 30.20 in WNW 1.0 mph 2.0 mph 89% 0.00 in 0 W/m2
07:04 28.5 °F 25.7 °F 30.20 in WNW 1.0 mph 3.0 mph 89% 0.00 in 0 W/m2
07:10 28.5 °F 25.7 °F 30.20 in WNW 1.0 mph 1.0 mph 89% 0.00 in 0 W/m2
07:16 28.5 °F 25.4 °F 30.20 in WNW 1.0 mph 2.0 mph 88% 0.00 in 0 W/m2
07:22 28.4 °F 25.3 °F 30.20 in West 1.0 mph 1.0 mph 88% 0.00 in 0 W/m2
07:28 28.4 °F 25.3 °F 30.20 in West 1.0 mph 2.0 mph 88% 0.00 in 0 W/m2
07:34 28.4 °F 25.3 °F 30.21 in West 1.0 mph 3.0 mph 88% 0.00 in 0 W/m2
07:40 28.4 °F 25.3 °F 30.21 in West 1.0 mph 2.0 mph 88% 0.00 in 0 W/m2
07:44 28.4 °F 25.3 °F 30.21 in Calm   3.0 mph 88% 0.00 in 0 W/m2
07:50 28.4 °F 25.3 °F 30.21 in West 1.0 mph 3.0 mph 88% 0.00 in 0 W/m2
07:56 28.4 °F 25.3 °F 30.21 in West 1.0 mph 3.0 mph 88% 0.00 in 0 W/m2
07:58 28.3 °F 25.2 °F 30.21 in West 1.0 mph 3.0 mph 88% 0.00 in 0 W/m2
08:04 28.3 °F 25.2 °F 30.21 in West 1.0 mph 3.0 mph 88% 0.00 in 0 W/m2
08:06 28.3 °F 25.2 °F 30.21 in West 1.0 mph 3.0 mph 88% 0.00 in 5 W/m2
08:12 28.3 °F 25.2 °F 30.21 in West 1.0 mph 1.0 mph 88% 0.00 in 7 W/m2
08:18 28.3 °F 25.2 °F 30.21 in West 1.0 mph 1.0 mph 88% 0.00 in 7 W/m2
08:24 28.3 °F 25.2 °F 30.22 in Calm   1.0 mph 88% 0.00 in 9 W/m2
08:30 28.3 °F 24.9 °F 30.21 in Calm     87% 0.00 in 7 W/m2
08:36 28.4 °F 25.0 °F 30.22 in West 1.0 mph 2.0 mph 87% 0.00 in 9 W/m2
08:42 28.4 °F 25.0 °F 30.22 in West 1.0 mph 1.0 mph 87% 0.00 in 11 W/m2
08:48 28.5 °F 25.1 °F 30.21 in West 1.0 mph 1.0 mph 87% 0.00 in 9 W/m2
08:54 28.5 °F 25.1 °F 30.22 in Calm   3.0 mph 87% 0.00 in 9 W/m2
09:00 28.5 °F 25.1 °F 30.22 in West 1.0 mph 2.0 mph 87% 0.00 in 7 W/m2
09:02 28.5 °F 25.1 °F 30.22 in SW 1.0 mph 2.0 mph 87% 0.00 in 7 W/m2
09:08 28.5 °F 25.1 °F 30.23 in SW 1.0 mph 2.0 mph 87% 0.00 in 9 W/m2
09:14 28.5 °F 25.1 °F 30.22 in Calm   1.0 mph 87% 0.00 in 9 W/m2
09:20 28.5 °F 25.1 °F 30.22 in Calm     87% 0.00 in 11 W/m2
09:26 28.6 °F 25.2 °F 30.23 in Calm   2.0 mph 87% 0.00 in 12 W/m2
09:34 28.6 °F 25.2 °F 30.23 in Calm   1.0 mph 87% 0.00 in 14 W/m2
09:40 28.6 °F 25.2 °F 30.23 in Calm     87% 0.00 in 14 W/m2
09:46 28.7 °F 25.3 °F 30.23 in Calm   1.0 mph 87% 0.00 in 18 W/m2
09:52 28.7 °F 25.3 °F 30.23 in SW 1.0 mph 1.0 mph 87% 0.00 in 19 W/m2
09:58 28.7 °F 25.3 °F 30.23 in Calm   1.0 mph 87% 0.00 in 23 W/m2
10:04 28.8 °F 25.4 °F 30.23 in Calm     87% 0.00 in 26 W/m2
10:10 28.9 °F 25.5 °F 30.23 in Calm   2.0 mph 87% 0.00 in 33 W/m2
10:16 29.1 °F 25.7 °F 30.23 in Calm   2.0 mph 87% 0.00 in 35 W/m2
10:22 29.2 °F 25.8 °F 30.23 in Calm   2.0 mph 87% 0.00 in 37 W/m2
10:28 29.3 °F 25.9 °F 30.23 in Calm   2.0 mph 87% 0.00 in 32 W/m2
10:34 29.3 °F 25.9 °F 30.23 in SW 1.0 mph 1.0 mph 87% 0.00 in 35 W/m2
10:40 29.4 °F 26.0 °F 30.23 in SW 1.0 mph 1.0 mph 87% 0.00 in 35 W/m2
10:46 29.4 °F 26.0 °F 30.23 in SW 1.0 mph 1.0 mph 87% 0.00 in 32 W/m2
10:52 29.5 °F 26.1 °F 30.23 in Calm     87% 0.00 in 33 W/m2
10:58 29.6 °F 26.2 °F 30.23 in Calm     87% 0.00 in 35 W/m2
11:02 29.7 °F 26.3 °F 30.22 in Calm   2.0 mph 87% 0.00 in 33 W/m2
11:08 29.7 °F 26.3 °F 30.23 in Calm   2.0 mph 87% 0.00 in 33 W/m2
11:12 29.7 °F 26.3 °F 30.22 in Calm     87% 0.00 in 35 W/m2
11:20 29.9 °F 26.5 °F 30.21 in Calm     87% 0.00 in 47 W/m2
11:26 30.1 °F 26.7 °F 30.21 in Calm     87% 0.00 in 63 W/m2
11:32 30.3 °F 26.9 °F 30.20 in Calm   1.0 mph 87% 0.00 in 58 W/m2
11:38 30.3 °F 26.6 °F 30.20 in SW 1.0 mph 1.0 mph 86% 0.00 in 54 W/m2
11:44 30.3 °F 26.6 °F 30.20 in SW 1.0 mph 1.0 mph 86% 0.00 in 67 W/m2
11:50 30.5 °F 26.8 °F 30.19 in Calm     86% 0.00 in 62 W/m2
11:56 30.6 °F 26.9 °F 30.19 in Calm   1.0 mph 86% 0.00 in 49 W/m2
12:02 30.5 °F 26.8 °F 30.18 in Calm   2.0 mph 86% 0.00 in 65 W/m2
12:06 30.6 °F 26.9 °F 30.18 in Calm   2.0 mph 86% 0.00 in 58 W/m2
12:10 30.8 °F 27.1 °F 30.18 in Calm     86% 0.00 in 56 W/m2
12:16 30.8 °F 27.1 °F 30.18 in SW 1.0 mph 1.0 mph 86% 0.00 in 56 W/m2
12:22 30.8 °F 27.1 °F 30.18 in SW 1.0 mph 2.0 mph 86% 0.00 in 67 W/m2
12:28 30.7 °F 26.7 °F 30.17 in SE 1.0 mph 2.0 mph 85% 0.00 in 63 W/m2
12:36 30.7 °F 26.4 °F 30.17 in SE 1.0 mph 3.0 mph 84% 0.00 in 63 W/m2
12:42 30.6 °F 26.6 °F 30.17 in SE 1.0 mph 2.0 mph 85% 0.00 in 56 W/m2
12:48 30.6 °F 26.3 °F 30.17 in SSE 1.0 mph 2.0 mph 84% 0.00 in 65 W/m2
12:52 30.8 °F 26.8 °F 30.17 in SSE 1.0 mph 1.0 mph 85% 0.00 in 65 W/m2
12:58 31.0 °F 26.7 °F 30.16 in Calm   2.0 mph 84% 0.00 in 70 W/m2
13:00 30.9 °F 26.6 °F 30.16 in Calm   2.0 mph 84% 0.00 in 67 W/m2
13:06 30.8 °F 26.5 °F 30.15 in ESE 1.0 mph 2.0 mph 84% 0.00 in 70 W/m2
13:12 30.8 °F 26.5 °F 30.15 in ESE 1.0 mph 2.0 mph 84% 0.00 in 69 W/m2
13:16 30.8 °F 26.5 °F 30.15 in SE 1.0 mph 4.0 mph 84% 0.00 in 69 W/m2
13:22 30.7 °F 26.4 °F 30.15 in SE 2.0 mph 2.0 mph 84% 0.00 in 63 W/m2
13:28 30.8 °F 26.2 °F 30.14 in East 1.0 mph 3.0 mph 83% 0.00 in 79 W/m2
13:34 30.9 °F 26.3 °F 30.14 in ENE 1.0 mph 4.0 mph 83% 0.00 in 104 W/m2
13:40 31.0 °F 26.4 °F 30.14 in ENE 2.0 mph 2.0 mph 83% 0.00 in 84 W/m2
13:46 31.2 °F 26.6 °F 30.13 in ENE 1.0 mph 2.0 mph 83% 0.00 in 76 W/m2
13:52 31.0 °F 26.1 °F 30.14 in SE 1.0 mph 4.0 mph 82% 0.00 in 62 W/m2
13:58 31.0 °F 25.9 °F 30.14 in East 2.0 mph 4.0 mph 81% 0.00 in 77 W/m2
14:04 31.2 °F 26.0 °F 30.13 in East 1.0 mph 3.0 mph 81% 0.00 in 72 W/m2
14:10 31.0 °F 25.6 °F 30.13 in East 3.0 mph 3.0 mph 80% 0.00 in 49 W/m2
14:16 30.9 °F 25.8 °F 30.12 in ESE 2.0 mph 4.0 mph 81% 0.00 in 54 W/m2
14:22 30.9 °F 25.8 °F 30.11 in ENE 2.0 mph 3.0 mph 81% 0.00 in 51 W/m2
14:26 30.9 °F 25.8 °F 30.11 in SE 2.0 mph 3.0 mph 81% 0.00 in 56 W/m2
14:32 30.9 °F 25.8 °F 30.11 in East 2.0 mph 5.0 mph 81% 0.00 in 51 W/m2
14:38 30.9 °F 25.8 °F 30.11 in ENE 2.0 mph 5.0 mph 81% 0.00 in 70 W/m2
14:44 31.0 °F 25.9 °F 30.10 in ENE 2.0 mph 3.0 mph 81% 0.00 in 76 W/m2
14:50 31.2 °F 25.7 °F 30.10 in ENE 2.0 mph 2.0 mph 80% 0.00 in 104 W/m2
14:56 31.2 °F 25.7 °F 30.10 in East 2.0 mph 3.0 mph 80% 0.00 in 53 W/m2
15:02 31.1 °F 25.3 °F 30.11 in ENE 1.0 mph 3.0 mph 79% 0.00 in 35 W/m2
15:08 31.0 °F 25.2 °F 30.10 in SE 1.0 mph 4.0 mph 79% 0.00 in 42 W/m2
15:14 30.9 °F 24.8 °F 30.10 in East 2.0 mph 4.0 mph 78% 0.00 in 32 W/m2
15:16 30.9 °F 24.8 °F 30.10 in ENE 2.0 mph 4.0 mph 78% 0.00 in 26 W/m2
15:22 30.7 °F 25.0 °F 30.09 in ENE 2.0 mph 2.0 mph 79% 0.00 in 21 W/m2
15:28 30.6 °F 24.9 °F 30.09 in ENE 2.0 mph 2.0 mph 79% 0.00 in 28 W/m2
15:34 30.5 °F 25.1 °F 30.09 in NE 1.0 mph 3.0 mph 80% 0.00 in 28 W/m2
15:40 30.5 °F 25.4 °F 30.08 in ENE 2.0 mph 2.0 mph 81% 0.00 in 25 W/m2
15:46 30.3 °F 25.5 °F 30.08 in ENE 2.0 mph 4.0 mph 82% 0.00 in 19 W/m2
15:52 30.2 °F 25.7 °F 30.07 in ENE 2.0 mph 3.0 mph 83% 0.00 in 19 W/m2
15:58 30.0 °F 25.8 °F 30.07 in East 2.0 mph 3.0 mph 84% 0.00 in 16 W/m2
16:04 29.9 °F 25.7 °F 30.07 in ENE 3.0 mph 4.0 mph 84% 0.00 in 11 W/m2
16:10 29.8 °F 25.6 °F 30.07 in ENE 2.0 mph 3.0 mph 84% 0.00 in 9 W/m2
16:16 29.8 °F 25.8 °F 30.07 in ENE 2.0 mph 5.0 mph 85% 0.00 in 9 W/m2
16:22 29.7 °F 25.7 °F 30.07 in ESE 3.0 mph 3.0 mph 85% 0.00 in 0 W/m2
16:28 29.6 °F 25.6 °F 30.06 in ENE 3.0 mph 7.0 mph 85% 0.00 in 0 W/m2
16:34 29.5 °F 25.3 °F 30.06 in NE 4.0 mph 4.0 mph 84% 0.00 in 0 W/m2
16:40 29.4 °F 25.2 °F 30.06 in East 3.0 mph 3.0 mph 84% 0.00 in 0 W/m2
16:46 29.4 °F 24.9 °F 30.07 in ESE 3.0 mph 3.0 mph 83% 0.00 in 0 W/m2
16:52 29.3 °F 24.8 °F 30.07 in ENE 2.0 mph 2.0 mph 83% 0.00 in 0 W/m2
16:58 29.2 °F 24.7 °F 30.07 in ENE 1.0 mph 7.0 mph 83% 0.00 in 0 W/m2
17:02 29.2 °F 24.7 °F 30.06 in ENE 1.0 mph 2.0 mph 83% 0.00 in 0 W/m2
17:08 29.2 °F 24.7 °F 30.07 in ENE 1.0 mph 2.0 mph 83% 0.00 in 0 W/m2
17:10 29.2 °F 24.7 °F 30.07 in NE 1.0 mph 2.0 mph 83% 0.00 in 0 W/m2
17:16 29.1 °F 24.6 °F 30.07 in ENE 1.0 mph 2.0 mph 83% 0.00 in 0 W/m2
17:22 29.0 °F 24.5 °F 30.07 in Calm     83% 0.00 in 0 W/m2
17:28 29.0 °F 24.5 °F 30.06 in Calm   2.0 mph 83% 0.00 in 0 W/m2
17:34 29.0 °F 24.8 °F 30.06 in ENE 1.0 mph 3.0 mph 84% 0.00 in 0 W/m2
17:40 29.0 °F 24.8 °F 30.05 in East 2.0 mph 3.0 mph 84% 0.00 in 0 W/m2
17:46 29.1 °F 24.9 °F 30.04 in East 2.0 mph 3.0 mph 84% 0.00 in 0 W/m2
17:52 29.1 °F 24.9 °F 30.04 in East 2.0 mph 2.0 mph 84% 0.00 in 0 W/m2
17:58 29.0 °F 24.8 °F 30.04 in East 1.0 mph 2.0 mph 84% 0.00 in 0 W/m2
18:04 29.1 °F 24.9 °F 30.03 in ENE 2.0 mph 2.0 mph 84% 0.00 in 0 W/m2
18:12 29.1 °F 24.9 °F 30.04 in East 2.0 mph 2.0 mph 84% 0.00 in 0 W/m2
18:18 29.1 °F 24.9 °F 30.04 in ENE 1.0 mph 2.0 mph 84% 0.00 in 0 W/m2
18:26 29.1 °F 24.9 °F 30.03 in ENE 2.0 mph 4.0 mph 84% 0.00 in 0 W/m2
18:32 29.1 °F 24.9 °F 30.03 in ENE 2.0 mph 5.0 mph 84% 0.00 in 0 W/m2
18:38 29.1 °F 24.9 °F 30.02 in NE 2.0 mph 5.0 mph 84% 0.00 in 0 W/m2
18:44 29.1 °F 25.2 °F 30.01 in East 2.0 mph 2.0 mph 85% 0.00 in 0 W/m2
18:50 29.1 °F 25.2 °F 30.01 in ENE 2.0 mph 3.0 mph 85% 0.00 in 0 W/m2
18:56 29.1 °F 25.2 °F 30.01 in East 3.0 mph 3.0 mph 85% 0.00 in 0 W/m2
19:03 29.2 °F 25.5 °F 30.00 in ENE 3.0 mph 3.0 mph 86% 0.00 in 0 W/m2
19:06 29.2 °F 25.5 °F 30.00 in ENE 2.0 mph 3.0 mph 86% 0.00 in 0 W/m2
19:12 29.2 °F 25.5 °F 30.00 in ENE 3.0 mph 5.0 mph 86% 0.00 in 0 W/m2
19:16 29.2 °F 25.5 °F 29.99 in ENE 4.0 mph 5.0 mph 86% 0.00 in 0 W/m2
19:22 29.1 °F 25.4 °F 29.98 in NE 4.0 mph 4.0 mph 86% 0.00 in 0 W/m2
19:24 29.1 °F 25.4 °F 29.98 in NE 4.0 mph 4.0 mph 86% 0.00 in 0 W/m2
19:30 29.0 °F 25.3 °F 29.98 in East 3.0 mph 5.0 mph 86% 0.00 in 0 W/m2
19:32 29.0 °F 25.3 °F 29.98 in East 2.0 mph 5.0 mph 86% 0.00 in 0 W/m2
19:38 29.1 °F 25.4 °F 29.98 in ENE 3.0 mph 6.0 mph 86% 0.00 in 0 W/m2
19:44 29.1 °F 25.4 °F 29.98 in ENE 3.0 mph 3.0 mph 86% 0.00 in 0 W/m2
19:50 29.1 °F 25.4 °F 29.97 in East 3.0 mph 5.0 mph 86% 0.00 in 0 W/m2
19:56 29.0 °F 25.3 °F 29.96 in ENE 4.0 mph 5.0 mph 86% 0.00 in 0 W/m2
20:03 29.0 °F 25.3 °F 29.96 in East 4.0 mph 5.0 mph 86% 0.00 in 0 W/m2
20:06 29.0 °F 25.3 °F 29.95 in ESE 5.0 mph 8.0 mph 86% 0.00 in 0 W/m2
20:12 29.0 °F 25.3 °F 29.94 in ENE 5.0 mph 5.0 mph 86% 0.00 in 0 W/m2
20:18 28.9 °F 25.2 °F 29.94 in East 4.0 mph 7.0 mph 86% 0.00 in 0 W/m2
20:24 29.0 °F 25.1 °F 29.94 in ENE 5.0 mph 7.0 mph 85% 0.00 in 0 W/m2
20:30 28.9 °F 25.0 °F 29.93 in SE 5.0 mph 5.0 mph 85% 0.00 in 0 W/m2
20:36 28.9 °F 25.0 °F 29.92 in NE 5.0 mph 6.0 mph 85% 0.00 in 0 W/m2
20:42 29.0 °F 24.8 °F 29.92 in SE 5.0 mph 9.0 mph 84% 0.00 in 0 W/m2
20:48 28.9 °F 24.7 °F 29.91 in ENE 4.0 mph 9.0 mph 84% 0.00 in 0 W/m2
20:54 28.9 °F 24.7 °F 29.91 in ESE 4.0 mph 5.0 mph 84% 0.00 in 0 W/m2
21:00 28.8 °F 24.6 °F 29.91 in East 2.0 mph 2.0 mph 84% 0.00 in 0 W/m2
21:06 28.9 °F 24.7 °F 29.92 in East 2.0 mph 2.0 mph 84% 0.00 in 0 W/m2
21:12 28.9 °F 24.7 °F 29.91 in East 3.0 mph 3.0 mph 84% 0.00 in 0 W/m2
21:18 28.9 °F 24.7 °F 29.89 in ENE 4.0 mph 8.0 mph 84% 0.00 in 0 W/m2
21:24 28.9 °F 24.7 °F 29.88 in NE 4.0 mph 8.0 mph 84% 0.00 in 0 W/m2
21:30 28.8 °F 24.6 °F 29.89 in ESE 3.0 mph 3.0 mph 84% 0.00 in 0 W/m2
21:36 28.8 °F 24.3 °F 29.87 in East 3.0 mph 5.0 mph 83% 0.00 in 0 W/m2
21:42 28.8 °F 24.3 °F 29.87 in ENE 4.0 mph 7.0 mph 83% 0.00 in 0 W/m2
21:48 28.6 °F 24.1 °F 29.86 in East 4.0 mph 7.0 mph 83% 0.00 in 0 W/m2
21:54 28.5 °F 24.0 °F 29.85 in ENE 5.0 mph 8.0 mph 83% 0.00 in 0 W/m2
22:00 28.3 °F 24.1 °F 29.85 in NE 5.0 mph 5.0 mph 84% 0.00 in 0 W/m2
22:06 28.2 °F 24.0 °F 29.84 in East 5.0 mph 6.0 mph 84% 0.00 in 0 W/m2
22:18 28.1 °F 24.2 °F 29.83 in ENE 5.0 mph 7.0 mph 85% 0.00 in 0 W/m2
22:24 28.0 °F 24.1 °F 29.82 in ESE 6.0 mph 8.0 mph 85% 0.00 in 0 W/m2
22:30 27.8 °F 24.2 °F 29.81 in ESE 5.0 mph 5.0 mph 86% 0.00 in 0 W/m2
22:36 27.5 °F 24.1 °F 29.81 in ENE 6.0 mph 7.0 mph 87% 0.00 in 0 W/m2
22:42 27.3 °F 24.2 °F 29.79 in ENE 5.0 mph 11.0 mph 88% 0.00 in 0 W/m2
22:48 27.1 °F 24.3 °F 29.79 in East 5.0 mph 11.0 mph 89% 0.00 in 0 W/m2
22:54 27.0 °F 24.2 °F 29.79 in East 6.0 mph 6.0 mph 89% 0.00 in 0 W/m2
23:00 27.0 °F 24.5 °F 29.78 in ENE 5.0 mph 5.0 mph 90% 0.00 in 0 W/m2
23:04 26.9 °F 24.4 °F 29.78 in ENE 4.0 mph 5.0 mph 90% 0.00 in 0 W/m2
23:10 26.7 °F 24.2 °F 29.78 in SE 5.0 mph 5.0 mph 90% 0.00 in 0 W/m2
23:16 26.6 °F 24.1 °F 29.78 in SE 5.0 mph 11.0 mph 90% 0.00 in 0 W/m2
23:22 26.5 °F 24.2 °F 29.77 in ESE 5.0 mph 7.0 mph 91% 0.00 in 0 W/m2
23:28 26.4 °F 24.1 °F 29.76 in ENE 4.0 mph 7.0 mph 91% 0.00 in 0 W/m2
23:34 26.3 °F 24.0 °F 29.75 in ESE 4.0 mph 4.0 mph 91% 0.00 in 0 W/m2
23:40 26.2 °F 23.9 °F 29.75 in ENE 4.0 mph 4.0 mph 91% 0.00 in 0 W/m2
23:46 26.2 °F 23.9 °F 29.75 in East 4.0 mph 7.0 mph 91% 0.00 in 0 W/m2
23:52 26.0 °F 23.7 °F 29.74 in SE 4.0 mph 8.0 mph 91% 0.00 in 0 W/m2
23:56 26.0 °F 23.7 °F 29.73 in ENE 5.0 mph 8.0 mph 91% 0.00 in 0 W/m2
Country Meadow, Clay, NY, USA
Compliments of Weather Underground - 2 mb